MONTICARGO VIRTUAL AIRLINES



 METAR AND TAF INFORMATION
METAR FOR LEBL
ADDS - METARS form results

(1626 UTC 22 November 2022)
Data provider http://aviationweather.gov/metar/data/
 
METAR text: LEBL 221600Z 27010KT 250V310 9999 FEW030 14/00 Q1008 NOSIG
Conditions at: LEBL (BARCELONA AIRPOR, ES) observed 1600 UTC 22 November 2022
Temperature: 14.0°C (57°F)
Dewpoint: 0.0°C (32°F) [RH = 38%]
Pressure (altimeter): 29.76 inches Hg (1008.0 mb)
Winds: from the W (270 degrees) at 12 MPH (10 knots; 5.1 m/s)
Visibility: 6 or more miles (10+ km)
Ceiling: at least 12,000 feet AGL
Clouds: few clouds at 3000 feet AGL
Weather: no significant weather observed at this time

METAR text: LEBL 221530Z 30008KT 260V340 9999 FEW030 15/00 Q1008 NOSIG
Conditions at: LEBL (BARCELONA AIRPOR, ES) observed 1530 UTC 22 November 2022
Temperature: 15.0°C (59°F)
Dewpoint: 0.0°C (32°F) [RH = 36%]
Pressure (altimeter): 29.76 inches Hg (1008.0 mb)
Winds: from the WNW (300 degrees) at 9 MPH (8 knots; 4.1 m/s)
Visibility: 6 or more miles (10+ km)
Ceiling: at least 12,000 feet AGL
Clouds: few clouds at 3000 feet AGL
Weather: no significant weather observed at this time

Forecast for: LEBL (BARCELONA AIRPOR, ES)
Text: TAF LEBL 221100Z 2212/2312 30015KT 9999 FEW030 TX16/2212Z TN13/2307Z
Forecast period: 1200 UTC 22 November 2022 to 1200 UTC 23 November 2022
Forecast type: FROM: standard forecast or significant change
Winds: from the WNW (300 degrees) at 17 MPH (15 knots; 7.7 m/s)
Visibility: 6 or more miles (10+ km)
Ceiling: at least 12,000 feet AGL
Clouds: few clouds at 3000 feet AGL
Weather: no significant weather forecast for this period
Text: TEMPO 2212/2216 30015G30KT
Forecast period: 1200 to 1600 UTC 22 November 2022
Forecast type: TEMPORARY: The following changes expected for less than half the time period
Winds: from the WNW (300 degrees) at 17 MPH (15 knots; 7.7 m/s)
gusting to 34 MPH (30 knots; 15.4 m/s)
Visibility: missing
Ceiling: unknown
Clouds: missing
Weather: no significant weather forecast for this period
Text: PROB30
Forecast period: 0200 to 0700 UTC 23 November 2022
Forecast type: TEMPORARY: The following changes expected for less than half the time period
Winds: variable direction winds at 5 MPH (4 knots; 2.1 m/s)
Visibility: missing
Ceiling: unknown
Clouds: missing
Weather: no significant weather forecast for this period

 AIRPORT MAP

 RUNWAY INFORMATION